Time;durP1;ratioP1;P1;durP2;ratioP2;P2;SDS_P1;SDS_P2;PMS_P1;PMS_P2;Temp;Humidity;BMP_temperature;BMP_pressure;BME280_temperature;BME280_humidity;BME280_pressure;Samples;Min_cycle;Max_cycle;Signal;HPM_P1;HPM_P2
2023/01/30 10:12:43;;;;;;;11.53;10.83;;;4.00;99.90;;;;;;5089813;27;20558;-86
2023/01/30 10:15:22;;;;;;;12.33;11.53;;;5.10;99.90;;;;;;5090364;28;20446;-86
2023/01/30 10:18:08;;;;;;;12.90;12.00;;;5.10;99.90;;;;;;5088930;28;20449;-87
2023/01/30 10:20:44;;;;;;;12.60;11.60;;;5.20;99.90;;;;;;5090041;28;20442;-88
2023/01/30 10:23:22;;;;;;;10.37;9.67;;;5.40;99.90;;;;;;5089758;28;20449;-88
2023/01/30 10:25:52;;;;;;;12.20;11.20;;;5.60;99.90;;;;;;5090416;28;20446;-88
2023/01/30 10:28:26;;;;;;;10.80;10.10;;;5.50;99.90;;;;;;5089970;28;20839;-87
2023/01/30 10:31:00;;;;;;;9.47;8.90;;;5.60;99.90;;;;;;5089181;28;20486;-88
2023/01/30 10:33:32;;;;;;;13.17;12.30;;;5.80;99.90;;;;;;5089991;28;20963;-87
2023/01/30 10:36:06;;;;;;;11.00;10.13;;;5.70;99.90;;;;;;5090075;28;20537;-86
2023/01/30 10:38:39;;;;;;;10.70;10.00;;;5.80;99.90;;;;;;5089625;28;20783;-86
2023/01/30 10:41:14;;;;;;;10.67;9.97;;;5.90;99.90;;;;;;5090567;28;20786;-86
2023/01/30 10:43:46;;;;;;;9.97;9.27;;;5.90;99.90;;;;;;5090114;28;20482;-85
2023/01/30 10:46:29;;;;;;;9.83;9.33;;;5.90;99.90;;;;;;5096946;28;20443;-86
2023/01/30 10:49:00;;;;;;;9.73;9.23;;;6.00;99.90;;;;;;5100820;28;20454;-86
2023/01/30 10:51:48;;;;;;;8.13;7.67;;;6.00;99.90;;;;;;5106576;28;21079;-85
2023/01/30 10:54:21;;;;;;;12.43;11.73;;;6.10;99.90;;;;;;5096215;28;20438;-85
2023/01/30 10:56:54;;;;;;;12.03;11.53;;;6.10;99.90;;;;;;5093969;28;20515;-86
2023/01/30 10:59:34;;;;;;;8.90;8.50;;;6.00;99.90;;;;;;5093678;28;20446;-84
2023/01/30 11:02:11;;;;;;;11.23;10.63;;;6.00;99.90;;;;;;5088511;28;20439;-84
2023/01/30 11:04:44;;;;;;;11.50;11.00;;;6.00;99.90;;;;;;5092098;28;20442;-81
2023/01/30 11:07:12;;;;;;;14.17;13.27;;;6.00;99.90;;;;;;5089199;28;20467;-81
2023/01/30 11:09:40;;;;;;;10.50;10.10;;;5.90;99.90;;;;;;5090043;28;20449;-82
2023/01/30 11:12:07;;;;;;;11.87;11.13;;;5.80;99.90;;;;;;5081165;28;20828;-81
2023/01/30 11:14:53;;;;;;;10.57;10.07;;;5.90;99.90;;;;;;5074837;28;20450;-83
2023/01/30 11:17:21;;;;;;;12.30;11.70;;;5.90;99.90;;;;;;5075059;28;20816;-83
2023/01/30 11:19:55;;;;;;;10.30;9.80;;;5.90;99.90;;;;;;5073400;28;20708;-80
2023/01/30 11:22:25;;;;;;;14.00;13.40;;;6.00;99.90;;;;;;5071925;28;20459;-79
2023/01/30 11:25:00;;;;;;;13.33;12.67;;;6.00;99.90;;;;;;5072327;28;20454;-78
2023/01/30 11:27:30;;;;;;;11.90;11.40;;;5.70;99.90;;;;;;5073308;28;20454;-80
2023/01/30 11:30:07;;;;;;;12.43;11.40;;;5.60;99.90;;;;;;5073843;28;20458;-80
2023/01/30 11:32:34;;;;;;;11.07;10.57;;;5.70;99.90;;;;;;5073557;28;20538;-82
2023/01/30 11:35:25;;;;;;;10.53;10.03;;;5.60;99.90;;;;;;5073028;28;20458;-82
2023/01/30 11:37:53;;;;;;;11.60;11.00;;;5.70;99.90;;;;;;5077907;28;20451;-81
2023/01/30 11:40:26;;;;;;;11.33;10.83;;;5.80;99.90;;;;;;5086039;28;20427;-80
2023/01/30 11:43:01;;;;;;;13.90;13.20;;;5.80;99.90;;;;;;5095732;28;20515;-77
2023/01/30 11:45:34;;;;;;;17.40;16.53;;;5.80;99.90;;;;;;5089663;28;20446;-76
2023/01/30 11:48:04;;;;;;;25.70;24.50;;;5.70;99.90;;;;;;5071658;28;20451;-72
2023/01/30 11:50:38;;;;;;;28.90;27.40;;;5.50;99.90;;;;;;5071584;28;20482;-73
2023/01/30 11:53:12;;;;;;;28.10;26.60;;;5.30;99.90;;;;;;5071732;28;20583;-74
2023/01/30 11:55:39;;;;;;;29.27;27.70;;;5.10;99.90;;;;;;5071842;28;20498;-74
2023/01/30 11:58:09;;;;;;;29.30;27.70;;;4.90;99.90;;;;;;5071614;28;20781;-76
2023/01/30 12:00:40;;;;;;;26.43;24.93;;;4.80;99.90;;;;;;5071655;28;20450;-76
2023/01/30 12:03:11;;;;;;;25.27;23.93;;;4.70;99.90;;;;;;5071324;28;20916;-77
2023/01/30 12:05:41;;;;;;;25.87;24.53;;;4.70;99.90;;;;;;5071468;28;20823;-76
2023/01/30 12:08:20;;;;;;;25.13;23.90;;;4.70;99.90;;;;;;5071199;28;20479;-78
2023/01/30 12:10:50;;;;;;;24.73;23.27;;;4.70;99.90;;;;;;5071103;28;20490;-77
2023/01/30 12:13:21;;;;;;;24.47;23.07;;;4.60;99.90;;;;;;5071261;28;20549;-77
2023/01/30 12:15:54;;;;;;;24.17;22.80;;;4.70;99.90;;;;;;5071312;28;20879;-77
2023/01/30 12:18:26;;;;;;;24.70;23.43;;;4.70;99.90;;;;;;5071352;28;20451;-77
2023/01/30 12:20:58;;;;;;;25.10;23.80;;;4.80;99.90;;;;;;5070932;28;20934;-75
2023/01/30 12:23:43;;;;;;;28.40;26.90;;;4.60;99.90;;;;;;5070273;28;20447;-76
2023/01/30 12:26:13;;;;;;;28.70;27.10;;;4.50;99.90;;;;;;5070903;28;20447;-76
2023/01/30 12:28:46;;;;;;;28.27;26.77;;;4.50;99.90;;;;;;5070884;28;20450;-76
2023/01/30 12:31:20;;;;;;;28.03;26.40;;;4.50;99.90;;;;;;5070936;28;20570;-76
2023/01/30 12:33:48;;;;;;;27.10;25.60;;;4.50;99.90;;;;;;5070534;28;20451;-76
2023/01/30 12:36:24;;;;;;;26.03;24.63;;;4.50;99.90;;;;;;5070650;28;20459;-76
2023/01/30 12:39:04;;;;;;;25.73;24.23;;;4.50;99.90;;;;;;5070554;28;20976;-74
2023/01/30 12:41:45;;;;;;;27.23;25.80;;;4.50;99.90;;;;;;5070508;28;20447;-76
2023/01/30 12:44:44;;;;;;;28.00;26.50;;;4.60;99.90;;;;;;5070695;28;20920;-75
2023/01/30 12:47:30;;;;;;;29.37;27.77;;;4.50;99.90;;;;;;5068714;28;20466;-74
2023/01/30 12:50:20;;;;;;;30.03;28.33;;;4.50;99.90;;;;;;5070407;28;20447;-73
2023/01/30 12:53:08;;;;;;;32.17;30.07;;;4.50;99.90;;;;;;5070204;28;20446;-73
2023/01/30 12:55:43;;;;;;;30.87;29.07;;;4.50;99.90;;;;;;5069974;28;20447;-72
2023/01/30 12:58:16;;;;;;;31.90;30.00;;;4.50;99.90;;;;;;5070217;28;20984;-73
2023/01/30 13:00:59;;;;;;;30.67;28.73;;;4.50;99.90;;;;;;5070079;28;20450;-74
2023/01/30 13:03:35;;;;;;;32.83;30.70;;;4.60;99.90;;;;;;5070369;28;20800;-73
2023/01/30 13:06:14;;;;;;;30.93;28.73;;;4.40;99.90;;;;;;5069705;28;20463;-74
2023/01/30 13:08:57;;;;;;;30.83;28.93;;;4.40;99.90;;;;;;5070320;28;20458;-76
2023/01/30 13:11:44;;;;;;;31.60;29.70;;;4.50;99.90;;;;;;5069866;28;21005;-76
2023/01/30 13:14:21;;;;;;;32.67;30.77;;;4.50;99.90;;;;;;5070063;28;20443;-77
2023/01/30 13:17:09;;;;;;;31.70;29.60;;;4.50;99.90;;;;;;5069744;28;20570;-77
2023/01/30 13:19:45;;;;;;;33.00;30.77;;;4.50;99.90;;;;;;5069905;28;20455;-76
2023/01/30 13:22:18;;;;;;;32.50;30.40;;;4.50;99.90;;;;;;5070108;28;20442;-77
2023/01/30 13:24:55;;;;;;;31.83;29.80;;;4.40;99.90;;;;;;5069894;28;20458;-78
2023/01/30 13:27:23;;;;;;;32.80;30.43;;;4.50;99.90;;;;;;5070082;28;20435;-78
2023/01/30 13:29:52;;;;;;;32.40;30.20;;;4.60;99.90;;;;;;5069609;28;20459;-78
2023/01/30 13:32:29;;;;;;;33.20;30.97;;;4.70;99.90;;;;;;5070325;28;20585;-81
2023/01/30 13:35:00;;;;;;;34.60;32.20;;;4.70;99.90;;;;;;5071257;28;20455;-81
2023/01/30 13:37:28;;;;;;;33.77;31.50;;;4.60;99.90;;;;;;5070889;28;20454;-80
2023/01/30 13:39:58;;;;;;;34.10;31.90;;;4.50;99.90;;;;;;5070483;28;20458;-81
2023/01/30 13:42:30;;;;;;;33.40;31.00;;;4.50;99.90;;;;;;5070901;28;20473;-82
2023/01/30 13:44:59;;;;;;;35.10;32.70;;;4.40;99.90;;;;;;5071064;28;20873;-82
2023/01/30 13:47:38;;;;;;;34.60;32.07;;;4.30;99.90;;;;;;5070336;28;20474;-82
2023/01/30 13:50:27;;;;;;;34.90;32.50;;;4.30;99.90;;;;;;5070488;28;20894;-81
2023/01/30 13:52:59;;;;;;;33.20;31.17;;;4.30;99.90;;;;;;5070328;28;20845;-81
2023/01/30 13:55:33;;;;;;;34.93;32.53;;;4.40;99.90;;;;;;5070437;28;20447;-82
2023/01/30 13:58:10;;;;;;;35.40;32.90;;;4.50;99.90;;;;;;5069933;28;20446;-81
2023/01/30 14:00:37;;;;;;;34.00;31.70;;;4.50;99.90;;;;;;5070016;28;20447;-81
2023/01/30 14:03:29;;;;;;;33.73;31.40;;;4.60;99.90;;;;;;5070052;28;20446;-80
2023/01/30 14:06:26;;;;;;;33.73;31.40;;;4.70;99.90;;;;;;5070764;28;20585;-81
2023/01/30 14:08:58;;;;;;;34.00;31.80;;;4.70;99.90;;;;;;5070042;28;20961;-82
2023/01/30 14:11:38;;;;;;;34.70;32.40;;;4.70;99.90;;;;;;5070302;28;20495;-81
2023/01/30 14:14:21;;;;;;;33.80;31.73;;;4.60;99.90;;;;;;5069912;28;20819;-82
2023/01/30 14:16:50;;;;;;;31.63;29.73;;;4.70;99.90;;;;;;5070375;28;20725;-81
2023/01/30 14:19:35;;;;;;;33.93;31.73;;;4.80;99.90;;;;;;5069826;28;20451;-82
2023/01/30 14:22:17;;;;;;;33.07;30.97;;;4.90;99.90;;;;;;5070169;28;20459;-82
2023/01/30 14:24:44;;;;;;;33.40;31.23;;;4.90;99.90;;;;;;5070083;28;20454;-83
2023/01/30 14:27:26;;;;;;;34.43;32.13;;;4.90;99.90;;;;;;5070589;28;20930;-82
2023/01/30 14:29:54;;;;;;;32.00;30.00;;;4.90;99.90;;;;;;5070807;28;20447;-82
2023/01/30 14:32:55;;;;;;;31.53;29.53;;;4.80;99.90;;;;;;5070168;28;20482;-82
2023/01/30 14:35:24;;;;;;;28.83;27.27;;;4.90;99.90;;;;;;5047586;28;20450;-82
2023/01/30 14:38:08;;;;;;;27.07;25.77;;;5.00;99.90;;;;;;5069691;28;20446;-83
2023/01/30 14:40:37;;;;;;;23.40;22.23;;;5.20;99.90;;;;;;5070173;28;20447;-82
2023/01/30 14:43:27;;;;;;;20.73;19.83;;;5.40;99.90;;;;;;5070328;28;20435;-83
2023/01/30 14:45:56;;;;;;;18.30;17.50;;;5.60;99.90;;;;;;5069206;28;20446;-91
2023/01/30 14:48:28;;;;;;;17.73;17.03;;;5.80;99.90;;;;;;5072247;28;20565;-87
2023/01/30 14:51:11;;;;;;;15.53;14.90;;;5.80;99.90;;;;;;5074086;28;20439;-90
2023/01/30 14:53:49;;;;;;;16.80;16.00;;;5.90;99.90;;;;;;5073160;28;20449;-89
2023/01/30 14:56:17;;;;;;;15.47;14.87;;;6.10;99.90;;;;;;5073792;28;20458;-88
2023/01/30 14:58:51;;;;;;;14.67;14.07;;;6.00;99.90;;;;;;5073618;28;20455;-85
2023/01/30 15:01:18;;;;;;;13.67;13.07;;;6.10;99.90;;;;;;5072819;28;20873;-84
2023/01/30 15:03:48;;;;;;;12.77;12.13;;;5.90;99.90;;;;;;5073643;28;20489;-90
2023/01/30 15:06:15;;;;;;;13.53;12.90;;;6.00;99.90;;;;;;5072749;28;20467;-84
2023/01/30 15:08:44;;;;;;;13.50;12.90;;;6.00;99.90;;;;;;5072938;28;20455;-86
2023/01/30 15:11:17;;;;;;;13.13;12.53;;;5.90;99.90;;;;;;5073527;28;20478;-86
2023/01/30 15:13:55;;;;;;;12.40;11.80;;;6.00;99.90;;;;;;5073164;28;20454;-84
2023/01/30 15:16:41;;;;;;;13.03;12.33;;;5.90;99.90;;;;;;5072415;28;20446;-87
2023/01/30 15:19:34;;;;;;;12.87;12.17;;;5.90;99.90;;;;;;5072753;28;20983;-90
2023/01/30 15:22:12;;;;;;;13.10;12.40;;;6.00;99.90;;;;;;5073039;28;20455;-88
2023/01/30 15:25:10;;;;;;;13.70;12.87;;;5.90;99.90;;;;;;5072943;28;20453;-84
2023/01/30 15:27:52;;;;;;;13.83;12.60;;;5.90;99.90;;;;;;5073440;28;20825;-89
2023/01/30 15:30:25;;;;;;;15.47;14.77;;;5.90;99.90;;;;;;5073051;28;20705;-89
2023/01/30 15:33:16;;;;;;;13.70;13.00;;;5.80;99.90;;;;;;5072520;28;20522;-89
2023/01/30 15:35:43;;;;;;;15.30;14.43;;;5.70;99.90;;;;;;5072701;28;20474;-84
2023/01/30 15:38:23;;;;;;;12.53;11.83;;;5.80;99.90;;;;;;5073022;28;20455;-89
2023/01/30 15:40:53;;;;;;;12.60;11.93;;;5.80;99.90;;;;;;5073220;28;21014;-89
2023/01/30 15:43:51;;;;;;;12.87;12.30;;;5.80;99.90;;;;;;5072910;28;20458;-86
2023/01/30 15:46:28;;;;;;;14.33;13.67;;;5.80;99.90;;;;;;5073075;28;20474;-89
2023/01/30 15:49:07;;;;;;;12.23;11.63;;;5.80;99.90;;;;;;5074091;28;20814;-87
2023/01/30 15:51:34;;;;;;;13.33;12.60;;;5.80;99.90;;;;;;5073205;28;20463;-88
2023/01/30 15:54:08;;;;;;;14.03;13.43;;;5.80;99.90;;;;;;5072909;28;20455;-90
2023/01/30 15:56:38;;;;;;;13.40;12.70;;;5.80;99.90;;;;;;5072829;28;20455;-90
2023/01/30 15:59:07;;;;;;;15.30;14.50;;;5.80;99.90;;;;;;5072452;28;20782;-89
2023/01/30 16:01:34;;;;;;;13.23;12.53;;;5.70;99.90;;;;;;5072679;28;20443;-90
2023/01/30 16:04:06;;;;;;;13.00;12.30;;;5.60;99.90;;;;;;5074101;28;20462;-89
2023/01/30 16:06:34;;;;;;;14.53;13.87;;;5.70;99.90;;;;;;5071682;28;20525;-91
2023/01/30 16:09:03;;;;;;;14.73;13.97;;;5.60;99.90;;;;;;5071183;28;20470;-86
2023/01/30 16:11:36;;;;;;;13.57;12.97;;;5.50;99.90;;;;;;5070954;28;20771;-91
2023/01/30 16:14:05;;;;;;;14.60;13.67;;;5.50;99.90;;;;;;5071573;28;20462;-89
2023/01/30 16:16:33;;;;;;;15.70;14.87;;;5.40;99.90;;;;;;5071446;28;20454;-91
2023/01/30 16:19:02;;;;;;;15.30;14.40;;;5.50;99.90;;;;;;5071566;28;20455;-92
2023/01/30 16:21:33;;;;;;;14.20;13.50;;;5.40;99.90;;;;;;5071228;28;20513;-86
2023/01/30 16:24:04;;;;;;;13.73;12.93;;;5.40;99.90;;;;;;5071505;28;20529;-91
2023/01/30 16:26:32;;;;;;;14.47;13.77;;;5.50;99.90;;;;;;5071024;28;20937;-87
2023/01/30 16:29:04;;;;;;;15.10;14.13;;;5.50;99.90;;;;;;5074215;28;20455;-87
2023/01/30 16:31:32;;;;;;;13.10;12.40;;;5.50;99.90;;;;;;5070312;28;20448;-86
2023/01/30 16:33:59;;;;;;;13.00;12.37;;;5.50;99.90;;;;;;5077822;28;20451;-86
2023/01/30 16:36:32;;;;;;;13.10;12.30;;;5.40;99.90;;;;;;5079288;28;20459;-86
2023/01/30 16:38:59;;;;;;;14.43;13.63;;;5.40;99.90;;;;;;5072861;28;20478;-86
2023/01/30 16:41:29;;;;;;;13.30;12.60;;;5.50;99.90;;;;;;5070122;28;20455;-87
2023/01/30 16:44:16;;;;;;;13.10;12.50;;;5.40;99.90;;;;;;5069956;28;20478;-87
2023/01/30 16:46:48;;;;;;;15.30;14.50;;;5.40;99.90;;;;;;5069913;28;20466;-86
2023/01/30 16:49:20;;;;;;;14.60;13.63;;;5.40;99.90;;;;;;5069410;28;20451;-86
2023/01/30 16:51:47;;;;;;;15.13;14.00;;;5.40;99.90;;;;;;5069258;28;20470;-86
2023/01/30 16:54:20;;;;;;;14.60;13.70;;;5.50;99.90;;;;;;5069323;28;20462;-86
2023/01/30 16:56:50;;;;;;;15.37;14.30;;;5.40;99.90;;;;;;5069405;28;20946;-85
2023/01/30 16:59:22;;;;;;;14.90;14.20;;;5.50;99.90;;;;;;5069076;28;20458;-85
2023/01/30 17:01:52;;;;;;;15.03;14.13;;;5.40;99.90;;;;;;5069096;28;20454;-86
2023/01/30 17:04:23;;;;;;;15.83;14.77;;;5.30;99.90;;;;;;5069055;28;20844;-86
2023/01/30 17:06:53;;;;;;;16.10;15.30;;;5.30;99.90;;;;;;5068916;28;20764;-85
2023/01/30 17:09:40;;;;;;;14.07;13.30;;;5.30;99.90;;;;;;5068508;28;20804;-85
2023/01/30 17:12:53;;;;;;;15.10;14.30;;;5.30;99.90;;;;;;5068601;28;20527;-86
2023/01/30 17:15:32;;;;;;;15.47;14.40;;;5.30;99.90;;;;;;5043911;28;20894;-86
2023/01/30 17:17:58;;;;;;;13.47;12.73;;;5.20;99.90;;;;;;5069027;28;20470;-83
2023/01/30 17:20:36;;;;;;;13.77;13.17;;;5.20;99.90;;;;;;5069139;28;20467;-86
2023/01/30 17:23:07;;;;;;;15.00;14.07;;;5.10;99.90;;;;;;5069022;28;20452;-85
2023/01/30 17:25:38;;;;;;;15.20;14.20;;;5.00;99.90;;;;;;5068798;28;20443;-86
2023/01/30 17:28:06;;;;;;;15.30;14.50;;;4.80;99.90;;;;;;5068545;28;20443;-86
2023/01/30 17:30:35;;;;;;;15.43;14.43;;;4.70;99.90;;;;;;5068421;28;20446;-85
2023/01/30 17:33:01;;;;;;;14.67;13.80;;;4.70;99.90;;;;;;5068118;28;20490;-85
2023/01/30 17:35:28;;;;;;;15.63;14.77;;;4.70;99.90;;;;;;5068409;28;20447;-84
2023/01/30 17:37:55;;;;;;;15.73;15.03;;;4.70;99.90;;;;;;5068434;28;20451;-88
2023/01/30 17:40:28;;;;;;;15.77;14.73;;;4.70;99.90;;;;;;5068418;28;20451;-85
2023/01/30 17:42:55;;;;;;;15.33;14.53;;;4.70;99.90;;;;;;5068777;28;20435;-85
2023/01/30 17:45:22;;;;;;;14.97;14.03;;;4.60;99.90;;;;;;5068436;28;20458;-85
2023/01/30 17:47:50;;;;;;;14.60;13.90;;;4.60;99.90;;;;;;5068630;28;20676;-84
2023/01/30 17:50:17;;;;;;;15.17;14.30;;;4.60;99.90;;;;;;5068579;28;20449;-85
2023/01/30 17:52:43;;;;;;;16.53;15.20;;;4.50;99.90;;;;;;5069628;28;20487;-84
2023/01/30 17:55:13;;;;;;;17.50;16.50;;;4.50;99.90;;;;;;5069989;28;20454;-85
2023/01/30 17:57:43;;;;;;;14.80;13.90;;;4.40;99.90;;;;;;5069375;28;20450;-84
